Time;durP1;ratioP1;P1;durP2;ratioP2;P2;SDS_P1;SDS_P2;PMS_P1;PMS_P2;Temp;Humidity;BMP_temperature;BMP_pressure;BME280_temperature;BME280_humidity;BME280_pressure;Samples;Min_cycle;Max_cycle;Signal;HPM_P1;HPM_P2
2022/01/30 00:01:48;;;;;;;29.20;5.77;;;6.20;99.90;;;;;;6211324;22;20083;-88
2022/01/30 00:04:13;;;;;;;33.87;5.57;;;6.30;99.90;;;;;;6292694;22;20009;-87
2022/01/30 00:06:40;;;;;;;32.67;4.63;;;6.30;99.90;;;;;;6347956;22;20025;-88
2022/01/30 00:09:09;;;;;;;25.23;4.20;;;6.30;99.90;;;;;;6400633;22;20449;-90
2022/01/30 00:11:37;;;;;;;17.55;3.20;;;6.30;99.90;;;;;;6403140;22;20343;-89
2022/01/30 00:14:05;;;;;;;25.23;4.13;;;6.20;99.90;;;;;;6401744;22;20014;-89
2022/01/30 00:16:36;;;;;;;22.52;4.03;;;6.10;99.90;;;;;;6373981;22;20018;-86
2022/01/30 00:21:39;;;;;;;21.60;4.80;;;6.00;99.90;;;;;;6403048;22;20017;-87
2022/01/30 00:24:21;;;;;;;20.15;3.28;;;6.00;99.90;;;;;;6403152;22;20013;-88
2022/01/30 00:26:47;;;;;;;18.35;3.20;;;6.00;99.90;;;;;;6373884;22;20014;-88
2022/01/30 00:29:14;;;;;;;16.15;2.17;;;6.00;99.90;;;;;;6403843;22;20010;-86
2022/01/30 00:31:40;;;;;;;15.68;2.63;;;6.10;99.90;;;;;;6374705;22;20014;-88
2022/01/30 00:34:05;;;;;;;8.17;1.80;;;6.00;99.90;;;;;;6374170;22;20063;-87
2022/01/30 00:36:32;;;;;;;13.27;1.70;;;6.00;99.90;;;;;;6402622;22;20014;-93
2022/01/30 00:38:59;;;;;;;15.82;2.80;;;6.00;99.90;;;;;;6348265;22;20020;-90
2022/01/30 00:41:25;;;;;;;19.13;3.05;;;6.00;99.90;;;;;;6347828;22;20058;-87
2022/01/30 00:43:51;;;;;;;19.98;3.05;;;6.00;99.90;;;;;;6402463;22;20014;-88
2022/01/30 00:46:17;;;;;;;23.23;4.13;;;5.90;99.90;;;;;;6402532;22;20024;-88
2022/01/30 00:48:43;;;;;;;25.80;4.60;;;5.90;99.90;;;;;;6402338;22;20041;-87
2022/01/30 00:51:09;;;;;;;22.10;3.77;;;5.90;99.90;;;;;;6401997;22;20025;-87
2022/01/30 00:53:35;;;;;;;23.30;3.88;;;5.90;99.90;;;;;;6374247;22;20018;-87
2022/01/30 00:56:00;;;;;;;27.07;4.13;;;5.90;99.90;;;;;;6402040;22;20361;-88
2022/01/30 00:58:28;;;;;;;24.37;4.40;;;5.90;99.90;;;;;;6372473;22;20069;-90
2022/01/30 01:00:54;;;;;;;28.92;4.10;;;5.90;99.90;;;;;;6373846;22;20024;-89
2022/01/30 01:03:19;;;;;;;23.80;4.50;;;5.90;99.90;;;;;;6402301;22;20414;-88
2022/01/30 01:05:45;;;;;;;29.40;4.87;;;5.90;99.90;;;;;;6402098;22;20014;-88
2022/01/30 01:08:20;;;;;;;34.13;5.37;;;5.90;99.90;;;;;;6401908;22;20014;-89
2022/01/30 01:10:55;;;;;;;38.25;6.30;;;5.90;99.90;;;;;;6374376;22;20447;-89
2022/01/30 01:23:46;;;;;;;36.40;5.77;;;6.00;99.90;;;;;;6402561;22;20124;-85
2022/01/30 01:26:12;;;;;;;34.53;6.10;;;6.00;99.90;;;;;;6374974;22;20025;-87
2022/01/30 01:28:39;;;;;;;32.00;4.50;;;6.10;99.90;;;;;;6402671;22;20014;-86
2022/01/30 01:31:05;;;;;;;37.15;6.50;;;6.10;99.90;;;;;;6402381;22;20096;-89
2022/01/30 01:36:15;;;;;;;28.75;4.63;;;6.10;99.90;;;;;;6402546;22;20018;-87
2022/01/30 01:38:41;;;;;;;26.73;4.82;;;6.10;99.90;;;;;;6374076;22;20506;-86
2022/01/30 01:41:07;;;;;;;26.27;5.27;;;6.00;99.90;;;;;;6402100;22;20017;-85
2022/01/30 01:43:34;;;;;;;29.83;5.43;;;6.00;99.90;;;;;;6402333;22;20010;-87
2022/01/30 01:46:01;;;;;;;34.38;5.95;;;6.00;99.90;;;;;;6347582;22;20014;-87
2022/01/30 01:48:32;;;;;;;32.47;5.07;;;5.90;99.90;;;;;;6402560;22;20010;-87
2022/01/30 01:51:07;;;;;;;34.42;4.90;;;5.90;99.90;;;;;;6401507;22;20025;-88
2022/01/30 01:53:33;;;;;;;29.63;4.93;;;5.90;99.90;;;;;;6401823;22;20404;-86
2022/01/30 01:56:00;;;;;;;29.38;4.68;;;5.90;99.90;;;;;;6402008;22;20446;-90
2022/01/30 01:58:26;;;;;;;35.08;5.47;;;5.80;99.90;;;;;;6401989;22;20370;-87
2022/01/30 02:09:27;;;;;;;32.05;6.00;;;5.80;99.90;;;;;;6374496;22;20021;-90
2022/01/30 02:11:54;;;;;;;34.13;6.60;;;5.80;99.90;;;;;;6375150;22;20045;-91
2022/01/30 02:14:34;;;;;;;;;;;5.80;99.90;;;;;;6349218;22;20568;-90
2022/01/30 02:25:37;;;;;;;24.30;3.83;;;6.10;99.90;;;;;;6375015;22;20030;-90
2022/01/30 02:28:09;;;;;;;22.77;4.13;;;6.10;99.90;;;;;;6348749;22;20014;-89
2022/01/30 02:30:38;;;;;;;27.38;4.55;;;6.20;99.90;;;;;;6348957;22;20018;-89
2022/01/30 02:33:03;;;;;;;31.70;4.93;;;6.10;99.90;;;;;;6348339;22;20014;-91
2022/01/30 02:35:30;;;;;;;24.07;4.40;;;6.10;99.90;;;;;;6348685;22;20017;-90
2022/01/30 02:37:58;;;;;;;30.52;5.07;;;6.10;99.90;;;;;;6374195;22;20024;-89
2022/01/30 02:40:24;;;;;;;33.45;5.28;;;6.00;99.90;;;;;;6347665;22;20315;-88
2022/01/30 02:42:52;;;;;;;32.07;6.00;;;6.00;99.90;;;;;;6347116;22;20029;-88
2022/01/30 02:45:20;;;;;;;32.38;5.20;;;6.00;99.90;;;;;;6346678;22;20014;-89
2022/01/30 02:48:00;;;;;;;36.42;6.13;;;5.90;99.90;;;;;;6348349;22;20018;-89
2022/01/30 02:53:10;;;;;;;42.63;6.82;;;5.90;99.90;;;;;;6373983;22;20104;-88
2022/01/30 02:55:36;;;;;;;35.08;7.13;;;5.90;99.90;;;;;;6347932;22;20041;-90
2022/01/30 02:58:02;;;;;;;45.58;7.25;;;5.90;99.90;;;;;;6349142;22;20025;-89
2022/01/30 03:00:28;;;;;;;35.93;5.70;;;6.00;99.90;;;;;;6376333;22;20009;-90
2022/01/30 03:02:53;;;;;;;48.00;7.93;;;6.10;99.90;;;;;;6349900;22;20409;-89
2022/01/30 03:05:19;;;;;;;35.07;7.17;;;6.20;99.90;;;;;;6376682;22;20018;-90
2022/01/30 03:07:45;;;;;;;39.10;6.65;;;6.20;99.90;;;;;;6317528;22;20092;-89
2022/01/30 03:10:11;;;;;;;37.17;7.93;;;6.20;99.90;;;;;;6292606;22;20044;-91
2022/01/30 03:12:38;;;;;;;37.33;6.28;;;6.30;99.90;;;;;;6292131;22;20012;-90
2022/01/30 03:15:05;;;;;;;35.50;5.78;;;6.20;99.90;;;;;;6318567;22;20016;-89
2022/01/30 03:17:30;;;;;;;;;;;6.30;99.90;;;;;;6294095;22;20016;-90
2022/01/30 03:19:56;;;;;;;32.88;5.35;;;6.30;99.90;;;;;;6323283;22;19958;-91
2022/01/30 03:22:22;;;;;;;34.63;6.13;;;6.30;99.90;;;;;;6295098;22;20341;-91
2022/01/30 03:24:48;;;;;;;41.05;5.38;;;6.30;99.90;;;;;;6320260;22;20016;-90
2022/01/30 03:27:14;;;;;;;37.17;6.30;;;6.30;99.90;;;;;;6299034;22;20447;-89
2022/01/30 03:29:41;;;;;;;38.35;6.78;;;6.30;99.90;;;;;;6293894;22;20173;-90
2022/01/30 03:32:07;;;;;;;32.05;5.85;;;6.40;99.90;;;;;;6292362;22;20017;-89
2022/01/30 03:34:33;;;;;;;40.20;7.00;;;6.40;99.90;;;;;;6291842;22;20016;-90
2022/01/30 03:37:00;;;;;;;33.50;6.47;;;6.40;99.90;;;;;;6291965;22;20052;-90
2022/01/30 03:39:25;;;;;;;41.70;7.05;;;6.40;99.90;;;;;;6291792;22;20017;-90
2022/01/30 03:41:51;;;;;;;40.77;6.23;;;6.40;99.90;;;;;;6318161;22;20059;-90
2022/01/30 03:44:17;;;;;;;44.50;7.30;;;6.40;99.90;;;;;;6292251;22;20124;-90
2022/01/30 03:46:43;;;;;;;41.95;6.80;;;6.40;99.90;;;;;;6292049;22;20090;-90
2022/01/30 03:49:09;;;;;;;44.53;6.73;;;6.30;99.90;;;;;;6291580;22;20431;-89
2022/01/30 03:51:34;;;;;;;40.33;7.40;;;6.30;99.90;;;;;;6292180;22;20024;-90
2022/01/30 03:54:00;;;;;;;37.97;7.00;;;6.30;99.90;;;;;;6291860;22;20052;-89
2022/01/30 03:56:26;;;;;;;35.80;7.20;;;6.30;99.90;;;;;;6291698;22;20064;-90
2022/01/30 03:58:51;;;;;;;36.47;7.47;;;6.20;99.90;;;;;;6291477;22;20016;-91
2022/01/30 04:01:17;;;;;;;45.23;7.17;;;6.20;99.90;;;;;;6291636;22;20019;-90
2022/01/30 04:03:43;;;;;;;37.67;7.07;;;6.30;99.90;;;;;;6291939;22;20104;-90
2022/01/30 04:06:09;;;;;;;43.77;7.23;;;6.40;99.90;;;;;;6292036;22;20340;-92
2022/01/30 04:08:35;;;;;;;48.72;7.63;;;6.40;99.90;;;;;;6263551;22;20020;-93
2022/01/30 04:11:02;;;;;;;35.22;6.57;;;6.40;99.90;;;;;;6216176;23;20098;-92
2022/01/30 04:13:27;;;;;;;30.67;5.68;;;6.40;99.90;;;;;;6216353;23;20020;-91
2022/01/30 04:15:53;;;;;;;31.00;5.87;;;6.50;99.90;;;;;;6215773;23;20009;-89
2022/01/30 04:18:19;;;;;;;27.13;6.07;;;6.50;99.90;;;;;;6215902;23;20081;-91
2022/01/30 04:20:45;;;;;;;28.23;5.63;;;6.50;99.90;;;;;;6216070;23;20452;-90
2022/01/30 04:23:11;;;;;;;41.23;7.50;;;6.50;99.90;;;;;;6216002;23;20077;-89
2022/01/30 04:25:37;;;;;;;38.47;7.27;;;6.50;99.90;;;;;;6215395;23;20258;-89
2022/01/30 04:28:03;;;;;;;44.70;7.43;;;6.50;99.90;;;;;;6215874;23;20016;-90
2022/01/30 04:30:28;;;;;;;48.40;8.13;;;6.50;99.90;;;;;;6216100;23;20031;-91
2022/01/30 04:33:01;;;;;;;41.73;8.00;;;6.50;99.90;;;;;;6215498;23;20051;-87
2022/01/30 04:35:29;;;;;;;46.20;8.13;;;6.50;99.90;;;;;;6216170;22;20016;-90
2022/01/30 04:52:54;;;;;;;44.15;7.68;;;6.40;99.90;;;;;;6242435;23;20031;-91
2022/01/30 05:00:48;;;;;;;44.87;8.07;;;6.30;99.90;;;;;;6185118;23;20016;-90
2022/01/30 05:03:42;;;;;;;50.78;8.57;;;6.20;99.90;;;;;;6160405;23;20021;-91
2022/01/30 05:06:13;;;;;;;54.25;8.70;;;6.10;99.90;;;;;;6185347;23;20016;-89
2022/01/30 05:08:42;;;;;;;56.75;9.65;;;5.90;99.90;;;;;;6185275;23;20021;-91
2022/01/30 05:11:09;;;;;;;48.92;7.97;;;5.90;99.90;;;;;;6160421;23;20024;-89
2022/01/30 05:13:39;;;;;;;53.13;8.82;;;5.80;99.90;;;;;;6160542;23;20031;-88
2022/01/30 05:16:22;;;;;;;52.85;8.65;;;5.80;99.90;;;;;;6161933;23;20465;-89
2022/01/30 05:18:48;;;;;;;51.05;8.65;;;5.70;99.90;;;;;;6185180;23;20021;-89
2022/01/30 05:21:14;;;;;;;49.22;10.00;;;5.70;99.90;;;;;;6160057;23;20345;-88
2022/01/30 05:28:45;;;;;;;50.22;8.73;;;5.60;99.90;;;;;;6319673;22;20020;-86
2022/01/30 05:31:14;;;;;;;59.47;10.67;;;5.50;99.90;;;;;;6198486;22;20053;-87
2022/01/30 05:49:06;;;;;;;37.65;6.13;;;5.50;99.90;;;;;;6400240;22;20046;-90
2022/01/30 05:54:21;;;;;;;40.63;6.90;;;5.40;99.90;;;;;;6403335;22;20097;-93
2022/01/30 05:56:46;;;;;;;47.47;7.90;;;5.40;99.90;;;;;;6374829;22;20018;-91
2022/01/30 05:59:12;;;;;;;46.20;7.50;;;5.30;99.90;;;;;;6402869;22;20010;-87
2022/01/30 06:01:38;;;;;;;32.00;6.50;;;5.40;99.90;;;;;;6348273;22;20094;-85
2022/01/30 06:04:04;;;;;;;46.93;7.57;;;5.40;99.90;;;;;;6374235;22;20010;-87
2022/01/30 06:06:29;;;;;;;41.77;7.47;;;5.40;99.90;;;;;;6373949;22;20055;-86
2022/01/30 06:09:18;;;;;;;49.70;8.10;;;5.40;99.90;;;;;;6375113;22;20009;-89
2022/01/30 06:11:49;;;;;;;51.30;7.53;;;5.40;99.90;;;;;;6348946;22;20018;-88
2022/01/30 06:14:16;;;;;;;56.55;8.55;;;5.40;99.90;;;;;;6348406;22;20006;-90
2022/01/30 06:16:42;;;;;;;;;;;5.40;99.90;;;;;;6349285;22;20469;-88
2022/01/30 06:19:08;;;;;;;45.70;8.10;;;5.40;99.90;;;;;;6375058;22;19914;-88
2022/01/30 06:21:34;;;;;;;41.20;7.40;;;5.40;99.90;;;;;;6349069;22;20010;-90
2022/01/30 06:24:00;;;;;;;41.47;7.93;;;5.50;99.90;;;;;;6348392;22;20021;-88
2022/01/30 06:26:26;;;;;;;53.73;8.47;;;5.60;99.90;;;;;;6272396;22;20020;-86
2022/01/30 06:28:51;;;;;;;51.37;10.43;;;5.60;99.90;;;;;;6240766;22;20404;-88
2022/01/30 07:20:42;;;;;;;37.45;6.60;;;5.80;99.90;;;;;;6389794;22;20022;-88
2022/01/30 07:41:03;;;;;;;37.40;7.43;;;5.80;99.90;;;;;;6376463;22;20097;-86
2022/01/30 07:43:30;;;;;;;40.70;6.95;;;5.90;99.90;;;;;;6348338;22;20014;-86
2022/01/30 07:45:56;;;;;;;36.17;7.13;;;5.90;99.90;;;;;;6376348;22;20404;-93
2022/01/30 07:48:28;;;;;;;43.77;7.60;;;5.90;99.90;;;;;;6404132;22;20014;-84
2022/01/30 07:51:03;;;;;;;42.25;7.88;;;5.90;99.90;;;;;;6376843;22;20018;-95
2022/01/30 07:53:30;;;;;;;39.25;7.68;;;5.80;99.90;;;;;;6353279;22;20020;-95
2022/01/30 08:03:42;;;;;;;45.28;8.45;;;5.80;99.90;;;;;;6325283;22;20516;-85
2022/01/30 08:06:08;;;;;;;46.13;7.40;;;5.80;99.90;;;;;;6220822;22;20020;-87
2022/01/30 08:08:33;;;;;;;44.20;8.50;;;5.70;99.90;;;;;;6246415;22;20092;-92
2022/01/30 08:10:59;;;;;;;49.43;8.47;;;5.80;99.90;;;;;;6246846;22;20023;-87
2022/01/30 08:13:28;;;;;;;50.42;8.23;;;5.80;99.90;;;;;;6220727;22;20023;-87
2022/01/30 08:15:58;;;;;;;45.40;7.75;;;5.80;99.90;;;;;;6246325;22;20019;-90
2022/01/30 08:18:24;;;;;;;51.88;10.02;;;5.80;99.90;;;;;;6245940;22;20020;-89
2022/01/30 08:20:49;;;;;;;50.07;9.13;;;5.90;99.90;;;;;;6220075;22;20401;-85
2022/01/30 08:23:19;;;;;;;43.73;7.63;;;5.90;99.90;;;;;;6245617;22;20020;-88
2022/01/30 08:25:45;;;;;;;39.55;7.75;;;5.90;99.90;;;;;;6245809;22;20012;-86
2022/01/30 08:28:14;;;;;;;42.67;7.97;;;5.90;99.90;;;;;;6220650;22;20110;-86
2022/01/30 08:30:40;;;;;;;46.05;7.78;;;5.90;99.90;;;;;;6220732;22;20047;-85
2022/01/30 08:33:06;;;;;;;44.40;7.20;;;5.90;99.90;;;;;;6220440;22;20023;-85
2022/01/30 08:35:32;;;;;;;47.33;8.07;;;5.90;99.90;;;;;;6245838;22;20087;-86
2022/01/30 08:38:18;;;;;;;37.20;6.87;;;5.80;99.90;;;;;;6245871;22;20472;-87
2022/01/30 08:40:46;;;;;;;34.30;7.80;;;5.90;99.90;;;;;;6221176;22;20771;-89
2022/01/30 08:43:21;;;;;;;39.83;6.95;;;5.90;99.90;;;;;;6221348;22;20016;-92
2022/01/30 08:45:53;;;;;;;35.38;6.18;;;5.90;99.90;;;;;;6183948;22;20017;-86
2022/01/30 08:48:25;;;;;;;34.50;6.10;;;6.00;99.90;;;;;;6184342;22;20435;-88
2022/01/30 08:56:08;;;;;;;43.85;6.85;;;6.00;99.90;;;;;;6402232;22;20431;-86
2022/01/30 08:58:33;;;;;;;43.80;7.87;;;6.00;99.90;;;;;;6348469;22;20018;-85
2022/01/30 09:01:15;;;;;;;36.77;7.03;;;6.00;99.90;;;;;;6347911;22;20093;-85
2022/01/30 09:03:44;;;;;;;41.70;8.05;;;6.00;99.90;;;;;;6375038;22;20025;-86
2022/01/30 09:06:22;;;;;;;40.33;7.32;;;5.90;99.90;;;;;;6349664;22;20074;-86
2022/01/30 09:08:48;;;;;;;37.90;6.68;;;6.00;99.90;;;;;;6348459;22;20054;-84
2022/01/30 09:11:14;;;;;;;48.47;8.67;;;6.00;99.90;;;;;;6402685;22;20018;-87
2022/01/30 09:13:39;;;;;;;38.40;6.80;;;6.10;99.90;;;;;;6375269;22;20511;-86
2022/01/30 09:16:17;;;;;;;48.33;7.57;;;6.10;99.90;;;;;;6349124;22;20103;-86
2022/01/30 09:18:43;;;;;;;37.53;7.45;;;6.20;99.90;;;;;;6348446;22;20029;-85
2022/01/30 09:21:09;;;;;;;41.27;8.10;;;6.30;99.90;;;;;;6374490;22;20036;-86
2022/01/30 09:23:41;;;;;;;38.45;6.43;;;6.20;99.90;;;;;;6375011;22;20025;-85
2022/01/30 09:26:06;;;;;;;40.23;6.23;;;6.20;99.90;;;;;;6374775;22;20346;-84
2022/01/30 09:28:32;;;;;;;45.30;7.17;;;6.10;99.90;;;;;;6374797;22;20021;-87
2022/01/30 09:30:58;;;;;;;35.23;6.83;;;6.10;99.90;;;;;;6347839;22;20346;-90
2022/01/30 09:38:36;;;;;;;42.95;7.75;;;6.20;99.90;;;;;;6397912;22;20025;-86
2022/01/30 09:41:13;;;;;;;41.40;7.15;;;6.20;99.90;;;;;;6346923;22;20014;-88
2022/01/30 09:43:40;;;;;;;44.80;7.63;;;6.30;99.90;;;;;;6347808;22;20320;-87
2022/01/30 09:49:32;;;;;;;39.33;6.30;;;6.30;99.90;;;;;;6401972;22;20389;-86
2022/01/30 10:41:54;;;;;;;32.92;7.03;;;6.80;99.90;;;;;;6230780;22;20403;-89
2022/01/30 10:52:46;;;;;;;39.17;6.70;;;6.70;99.90;;;;;;6402343;22;20034;-88
2022/01/30 10:55:47;;;;;;;37.78;6.65;;;6.70;99.90;;;;;;6349413;22;20055;-89
2022/01/30 10:58:24;;;;;;;42.60;6.65;;;6.70;99.90;;;;;;6351943;22;20014;-89
2022/01/30 11:06:15;;;;;;;35.05;6.68;;;6.80;99.90;;;;;;6408327;22;20046;-91
2022/01/30 11:08:45;;;;;;;39.20;6.10;;;6.80;99.90;;;;;;6351948;22;20402;-91
2022/01/30 11:18:59;;;;;;;44.03;7.35;;;6.90;99.90;;;;;;6404627;22;20388;-92
2022/01/30 11:21:31;;;;;;;35.50;6.15;;;6.90;99.90;;;;;;6377269;22;20010;-91
2022/01/30 11:23:59;;;;;;;42.33;7.18;;;6.90;99.90;;;;;;6350396;22;20028;-92
2022/01/30 11:26:27;;;;;;;42.45;7.10;;;7.00;99.90;;;;;;6351162;22;20013;-95
2022/01/30 11:28:53;;;;;;;45.13;7.20;;;7.00;99.90;;;;;;6351303;22;20014;-92
2022/01/30 11:31:19;;;;;;;41.33;6.63;;;7.00;99.90;;;;;;6354538;22;20010;-88
2022/01/30 11:33:45;;;;;;;43.30;7.07;;;6.90;99.90;;;;;;6353751;22;20121;-88
2022/01/30 11:36:16;;;;;;;40.50;6.40;;;6.90;99.90;;;;;;6381160;22;20021;-89
2022/01/30 11:38:42;;;;;;;;;;;6.90;99.90;;;;;;6352114;22;20150;-89
2022/01/30 11:41:14;;;;;;;34.35;6.10;;;6.90;99.90;;;;;;6350929;22;19913;-89
2022/01/30 11:43:41;;;;;;;35.00;6.53;;;6.90;99.90;;;;;;6377924;22;20013;-89
2022/01/30 11:46:16;;;;;;;39.47;7.00;;;7.00;99.90;;;;;;6350755;22;20021;-92
2022/01/30 11:48:43;;;;;;;40.72;6.63;;;7.00;99.90;;;;;;6352241;22;20028;-89
2022/01/30 11:51:18;;;;;;;35.92;6.57;;;7.00;99.90;;;;;;6350676;22;20319;-93
2022/01/30 11:53:44;;;;;;;33.08;7.20;;;7.10;99.90;;;;;;6377829;22;20022;-92
2022/01/30 11:56:31;;;;;;;29.95;6.68;;;7.10;99.90;;;;;;6380297;22;20018;-91
2022/01/30 13:21:07;;;;;;;29.42;5.45;;;6.60;99.90;;;;;;6258635;22;20020;-91
2022/01/30 13:23:51;;;;;;;30.57;5.33;;;6.60;99.90;;;;;;6349606;22;20092;-88
2022/01/30 13:26:35;;;;;;;24.75;5.72;;;6.40;99.90;;;;;;6322552;22;20047;-89
2022/01/30 13:31:37;;;;;;;31.05;4.82;;;6.50;99.90;;;;;;6403088;22;20017;-88
2022/01/30 13:40:17;;;;;;;30.45;5.10;;;6.60;99.90;;;;;;6244004;22;20052;-87
2022/01/30 13:51:46;;;;;;;28.33;5.07;;;6.70;99.90;;;;;;6241605;22;20020;-87
2022/01/30 14:05:49;;;;;;;31.85;5.22;;;6.40;99.90;;;;;;6401521;22;20053;-88
2022/01/30 14:16:19;;;;;;;34.40;5.00;;;6.20;99.90;;;;;;6401986;22;20033;-87
2022/01/30 14:18:55;;;;;;;42.28;7.03;;;6.20;99.90;;;;;;6347668;22;20018;-89
2022/01/30 14:21:32;;;;;;;33.55;6.22;;;6.10;99.90;;;;;;6348750;22;20036;-89
2022/01/30 14:23:58;;;;;;;;;;;6.10;99.90;;;;;;6348601;22;20427;-89
2022/01/30 14:26:30;;;;;;;30.17;5.38;;;6.10;99.90;;;;;;6347847;22;19914;-87
2022/01/30 14:29:21;;;;;;;32.47;5.78;;;6.10;99.90;;;;;;6347320;22;20006;-87
2022/01/30 14:32:05;;;;;;;31.95;5.55;;;6.10;99.90;;;;;;6348761;22;20060;-91
2022/01/30 14:34:31;;;;;;;33.42;6.80;;;6.10;99.90;;;;;;6347564;22;20026;-87
2022/01/30 15:05:20;;;;;;;29.63;5.38;;;6.20;99.90;;;;;;6401522;22;20438;-87
2022/01/30 15:07:49;;;;;;;33.15;4.90;;;6.20;99.90;;;;;;6347127;22;20379;-88
2022/01/30 18:40:58;;;;;;;36.90;5.97;;;4.40;99.90;;;;;;6357901;22;20018;-91
2022/01/30 23:38:20;;;;;;;20.80;5.00;;;4.20;99.90;;;;;;6433900;22;20021;-87
2022/01/30 23:40:49;;;;;;;20.30;4.28;;;4.10;99.90;;;;;;6410513;22;20026;-91
2022/01/30 23:43:18;;;;;;;24.20;4.35;;;4.20;99.90;;;;;;6383027;22;20095;-88
2022/01/30 23:45:44;;;;;;;22.10;4.95;;;4.20;99.90;;;;;;6383145;22;20058;-88
2022/01/30 23:48:13;;;;;;;26.52;4.90;;;4.20;99.90;;;;;;6410470;22;20100;-87
